Latest Weather Observations for Warragul (Nilma North)

IDV60801

Issued at 9:02 pm EDT Monday 26 January 2015 (issued every 30 minutes, with the page automatically refreshed every 10 minutes)

About weather observations | Map of weather stations | Latest weather observations for VIC | Other Formats
Station Details ID: 085313 Name: NILMA NORTH (WARRAGUL) Lat: -38.13 Lon: 145.99 Height: 134.11 m
Data from the previous 72 hours. | See also: Recent months for locations in Victoria
Date/Time
EDT
Temp
°C
App
Temp
°C
Dew
Point
Rel
Hum
%
Delta-T
°C
Wind Press
QNH
hPa
Press
MSL
hPa
Rain
since 9 am
mm
Dir
 
Spd
km/h
Gust
km/h
Spd
kts
Gust
kts
26/09:00pm 14.2 11.6 6.1 58 3.9 SE 9 15 5 8 1017.4 1017.0 0.0
26/08:30pm 15.0 12.4 6.3 56 4.2 SE 9 15 5 8 1017.3 1016.9 0.0
26/08:00pm 15.4 12.8 5.9 53 4.6 S 9 17 5 9 1016.9 1016.5 0.0
26/07:30pm 15.7 12.2 5.6 51 4.9 SSE 13 20 7 11 1016.5 1016.1 0.0
26/07:00pm 16.0 12.4 6.7 54 4.6 S 15 24 8 13 1016.0 1015.6 0.0
26/06:30pm 16.9 13.0 7.3 53 4.8 S 17 24 9 13 1015.7 1015.3 0.0
26/06:00pm 17.7 14.3 7.7 52 5.1 S 15 24 8 13 1015.4 1015.0 0.0
26/05:30pm 17.7 14.5 8.6 55 4.7 S 15 22 8 12 1015.6 1015.2 0.0
26/05:00pm 17.7 14.8 8.3 54 4.8 S 13 20 7 11 1015.8 1015.4 0.0
26/04:30pm 17.3 14.4 8.2 55 4.7 S 13 20 7 11 1015.8 1015.4 0.0
26/04:00pm 17.8 15.4 7.2 50 5.3 SSE 9 15 5 8 1015.8 1015.4 0.0
26/03:30pm 18.2 16.2 6.1 45 6.0 S 6 13 3 7 1015.8 1015.4 0.0
26/03:00pm 18.8 16.9 6.6 45 6.1 SE 6 13 3 7 1015.9 1015.5 0.0
26/02:30pm 18.1 16.1 6.3 46 5.9 S 6 13 3 7 1016.0 1015.6 0.0
26/02:00pm 17.8 15.8 7.0 49 5.4 SE 7 15 4 8 1016.2 1015.8 0.0
26/01:30pm 17.2 14.9 7.3 52 5.0 SSE 9 15 5 8 1016.4 1016.0 0.0
26/01:00pm 17.2 14.9 7.3 52 5.0 SW 9 15 5 8 1016.5 1016.1 0.0
26/12:30pm 18.5 16.2 7.6 49 5.6 SW 9 15 5 8 1016.6 1016.2 0.0
26/12:00pm 16.5 14.6 6.9 53 4.8 S 6 9 3 5 1016.7 1016.3 0.0
26/11:30am 16.4 15.0 7.3 55 4.6 W 4 6 2 3 1016.7 1016.3 0.0
26/11:00am 16.3 14.1 6.4 52 4.9 W 7 11 4 6 1016.7 1016.3 0.0
26/10:30am 15.9 13.9 6.3 53 4.7 SW 6 13 3 7 1016.6 1016.2 0.0
26/10:00am 15.0 12.9 6.6 57 4.1 SW 7 11 4 6 1016.7 1016.3 0.0
26/09:30am 15.5 14.4 8.5 63 3.6 SSW 4 9 2 5 1016.7 1016.3 0.0
26/09:00am 13.9 12.9 8.7 71 2.6 SW 4 4 2 2 1016.6 1016.2 0.0
26/08:30am 12.8 11.9 9.3 79 1.8 SSW 4 6 2 3 1016.4 1016.0 0.0
26/08:00am 11.8 11.5 8.6 81 1.6 CALM 0 0 0 0 1016.0 1015.6 0.0
26/07:30am 10.9 10.6 8.8 87 1.0 CALM 0 0 0 0 1015.7 1015.3 0.0
26/07:00am 8.8 7.9 7.9 94 0.4 NE 2 4 1 2 1015.4 1015.0 0.0
26/06:30am 8.1 7.5 7.2 94 0.4 CALM 0 0 0 0 1015.0 1014.6 0.0
26/06:00am 8.3 7.6 6.8 90 0.7 CALM 0 0 0 0 1014.7 1014.3 0.0
26/05:30am 9.4 8.4 7.5 88 0.9 WSW 2 4 1 2 1014.3 1013.9 0.0
26/05:00am 10.3 9.1 8.1 86 1.1 NW 4 4 2 2 1014.1 1013.7 0.0
26/04:30am 10.0 9.3 8.4 90 0.8 NNW 2 6 1 3 1014.0 1013.6 0.0
26/04:00am 9.3 8.7 7.3 87 1.0 CALM 0 2 0 1 1013.9 1013.5 0.0
26/03:30am 9.3 8.3 7.3 87 1.0 SW 2 4 1 2 1013.8 1013.4 0.0
26/03:00am 9.6 8.9 6.9 83 1.3 CALM 0 0 0 0 1013.6 1013.2 0.0
26/02:30am 9.6 8.8 6.5 81 1.5 CALM 0 0 0 0 1013.4 1013.0 0.0
26/02:00am 10.2 8.7 6.7 79 1.7 NNW 4 6 2 3 1013.3 1012.9 0.0
26/01:30am 10.2 8.8 7.1 81 1.5 NW 4 6 2 3 1013.3 1012.9 0.0
26/01:00am 10.2 8.8 7.3 82 1.4 NW 4 6 2 3 1013.4 1013.0 0.0
26/12:30am 10.1 8.6 6.8 80 1.6 NW 4 6 2 3 1013.4 1013.0 0.0
26/12:00am 10.4 8.9 6.9 79 1.7 NNW 4 6 2 3 1013.4 1013.0 0.0
 
Date/Time
EDT
Temp
°C
App
Temp
°C
Dew
Point
Rel
Hum
%
Delta-T
°C
Wind Press
QNH
hPa
Press
MSL
hPa
Rain
since 9 am
mm
Dir
 
Spd
km/h
Gust
km/h
Spd
kts
Gust
kts
25/11:30pm 10.8 9.3 6.9 77 1.9 NW 4 4 2 2 1013.4 1013.0 0.0
25/11:00pm 11.2 10.5 6.9 75 2.1 CALM 0 0 0 0 1013.3 1012.9 0.0
25/10:30pm 12.0 10.6 7.1 72 2.4 W 4 7 2 4 1013.2 1012.8 0.0
25/10:00pm 12.8 11.0 7.3 69 2.7 W 6 9 3 5 1013.1 1012.7 0.0
25/09:30pm 13.5 11.5 7.3 66 3.0 W 7 13 4 7 1012.7 1012.3 0.0
25/09:00pm 13.4 10.5 6.3 62 3.4 W 11 15 6 8 1012.3 1011.9 0.0
25/08:30pm 14.2 11.1 5.6 56 4.1 WSW 11 19 6 10 1012.0 1011.6 0.0
25/08:00pm 15.1 11.3 5.9 54 4.4 WSW 15 30 8 16 1011.6 1011.2 0.0
25/07:30pm 15.2 12.1 7.3 59 3.9 WSW 13 26 7 14 1011.2 1010.8 0.0
25/07:00pm 15.2 11.6 8.2 63 3.5 WSW 17 32 9 17 1010.9 1010.5 0.0
25/06:30pm 15.8 11.6 7.3 57 4.2 WSW 19 43 10 23 1010.2 1009.8 0.0
25/06:00pm 16.5 12.2 8.0 57 4.3 WSW 20 37 11 20 1009.9 1009.5 0.0
25/05:30pm 17.7 12.9 7.4 51 5.2 WSW 22 41 12 22 1009.5 1009.1 0.0
25/05:00pm 17.8 13.3 8.6 55 4.8 WSW 22 39 12 21 1008.9 1008.5 0.0
25/04:30pm 18.4 14.9 8.9 54 5.0 WSW 17 35 9 19 1008.6 1008.2 0.0
25/04:00pm 18.7 13.9 7.5 48 5.7 WSW 22 41 12 22 1008.2 1007.8 0.0
25/03:30pm 17.9 13.5 7.6 51 5.2 WSW 20 35 11 19 1008.1 1007.7 0.0
25/03:00pm 18.8 14.5 9.3 54 5.0 W 22 37 12 20 1008.0 1007.6 0.0
25/02:35pm 18.9 12.6 7.4 47 5.9 W 30 48 16 26 1007.8 1007.4 0.0
25/02:30pm 19.5 14.8 9.1 51 5.5 W 24 43 13 23 1007.8 1007.4 0.0
25/02:00pm 18.3 11.9 6.8 47 5.8 W 30 43 16 23 1007.5 1007.1 0.0
25/01:45pm 19.4 13.1 7.2 45 6.2 W 30 50 16 27 1007.5 1007.1 0.0
25/01:30pm 18.8 13.9 8.5 51 5.4 W 24 39 13 21 1007.5 1007.1 0.0
25/01:00pm 17.5 12.3 7.3 51 5.2 W 24 37 13 20 1007.4 1007.0 0.0
25/12:30pm 17.8 12.0 7.8 52 5.1 W 28 43 15 23 1007.2 1006.8 0.0
25/12:09pm 18.9 12.5 8.6 51 5.4 WNW 32 54 17 29 1007.1 1006.6 0.0
25/12:00pm 17.5 11.4 6.7 49 5.4 WNW 28 43 15 23 1007.2 1006.8 0.0
25/11:47am 18.3 12.3 8.6 53 5.0 W 30 48 16 26 1007.2 1006.8 0.0
25/11:30am 18.0 12.1 10.4 61 4.1 W 32 48 17 26 1007.1 1006.6 0.0
25/11:00am 17.1 11.8 9.8 62 3.9 W 28 39 15 21 1006.8 1006.3 0.0
25/10:30am 16.0 12.7 11.6 75 2.4 W 20 30 11 16 1006.8 1006.3 0.0
25/10:00am 15.1 12.9 12.2 83 1.6 W 15 24 8 13 1006.5 1006.0 0.0
25/09:30am 14.7 12.4 11.8 83 1.6 W 15 24 8 13 1006.4 1005.9 0.0
25/09:00am 14.5 13.3 12.9 90 0.9 WNW 11 19 6 10 1006.7 1006.2 1.6
25/08:30am 13.8 13.4 12.9 94 0.5 WNW 7 13 4 7 1006.4 1005.9 1.6
25/08:00am 13.5 12.6 12.7 95 0.4 W 9 13 5 7 1005.9 1005.4 1.0
25/07:30am 13.8 11.8 12.7 93 0.6 W 15 28 8 15 1005.3 1004.9 0.0
25/07:00am 15.4 10.9 12.7 84 1.5 W 28 43 15 23 1004.5 1004.1 0.0
25/06:30am 15.6 14.8 12.9 84 1.5 WNW 9 24 5 13 1003.6 1003.2 0.0
25/06:00am 15.0 14.8 13.0 88 1.1 WNW 6 11 3 6 1003.3 1002.9 0.0
25/05:30am 15.3 14.9 13.0 86 1.3 NW 7 11 4 6 1002.7 1002.3 0.0
25/05:00am 15.6 15.4 13.6 88 1.1 WNW 7 11 4 6 1002.5 1002.1 0.0
25/04:30am 14.9 14.8 13.4 91 0.8 WNW 6 11 3 6 1002.3 1001.9 0.0
25/04:00am 14.9 15.1 13.1 89 1.0 NW 4 9 2 5 1001.9 1001.5 0.0
25/03:30am 16.1 16.2 13.9 87 1.3 W 6 9 3 5 1001.9 1001.5 0.0
25/03:00am 16.6 16.2 14.1 85 1.4 WNW 9 17 5 9 1002.2 1001.8 0.0
25/02:30am 16.2 16.2 13.7 85 1.4 WNW 6 9 3 5 1002.2 1001.8 0.0
25/02:00am 16.4 16.5 13.9 85 1.4 WNW 6 11 3 6 1002.5 1002.1 0.0
25/01:30am 15.7 15.7 13.5 87 1.2 WNW 6 9 3 5 1002.5 1002.1 0.0
25/01:00am 15.6 15.5 13.3 86 1.3 NW 6 9 3 5 1002.5 1002.1 0.0
25/12:30am 16.3 16.3 13.6 84 1.5 WNW 6 9 3 5 1002.8 1002.4 0.0
25/12:00am 17.7 17.8 14.4 81 1.9 WNW 7 15 4 8 1003.1 1002.7 0.0
 
Date/Time
EDT
Temp
°C
App
Temp
°C
Dew
Point
Rel
Hum
%
Delta-T
°C
Wind Press
QNH
hPa
Press
MSL
hPa
Rain
since 9 am
mm
Dir
 
Spd
km/h
Gust
km/h
Spd
kts
Gust
kts
24/11:30pm 20.0 21.4 16.4 80 2.2 NNE 4 4 2 2 1002.8 1002.4 0.0
24/11:00pm 19.4 20.2 15.9 80 2.1 E 6 9 3 5 1002.9 1002.5 0.0
24/10:30pm 20.6 21.5 16.2 76 2.7 E 6 9 3 5 1003.0 1002.6 0.0
24/10:00pm 20.9 21.9 16.3 75 2.8 ESE 6 7 3 4 1003.0 1002.6 0.0
24/09:30pm 21.0 21.9 16.2 74 2.9 SSE 6 9 3 5 1003.1 1002.7 0.0
24/09:00pm 20.9 21.2 16.1 74 2.9 S 9 13 5 7 1002.9 1002.5 0.0
24/08:30pm 21.9 22.3 16.4 71 3.4 SSE 9 17 5 9 1002.6 1002.2 0.0
24/08:00pm 22.5 22.6 16.5 69 3.7 S 11 15 6 8 1002.1 1001.7 0.0
24/07:30pm 23.5 23.2 16.5 65 4.3 S 13 19 7 10 1001.8 1001.4 0.0
24/07:00pm 24.4 24.9 16.6 61 4.8 SSW 9 15 5 8 1001.3 1000.9 0.0
24/06:30pm 24.8 24.8 16.2 58 5.3 SSW 11 19 6 10 1001.2 1000.8 0.0
24/06:00pm 25.8 26.2 17.2 59 5.4 SSW 11 22 6 12 1001.3 1000.9 0.0
24/05:30pm 26.0 25.7 16.5 55 5.9 WSW 13 28 7 15 1001.2 1000.8 0.0
24/05:00pm 28.1 28.2 16.4 49 7.3 W 11 20 6 11 1001.0 1000.6 0.0
24/04:30pm 28.0 29.6 16.9 51 7.0 SSE 4 9 2 5 1001.2 1000.8 0.0
24/04:00pm 27.4 28.0 15.4 48 7.4 W 6 11 3 6 1001.7 1001.3 0.0
24/03:30pm 26.5 27.3 15.8 51 6.6 NE 6 9 3 5 1002.2 1001.8 0.0
24/03:00pm 26.2 27.4 15.9 53 6.4 SE 4 7 2 4 1002.7 1002.3 0.0
24/02:30pm 25.5 25.9 16.4 57 5.6 W 9 15 5 8 1003.0 1002.6 0.0
24/02:00pm 24.9 25.9 16.3 59 5.3 WNW 6 9 3 5 1003.4 1003.0 0.0
24/01:30pm 24.1 25.7 17.8 68 4.0 E 6 7 3 4 1003.9 1003.5 0.0
24/01:00pm 23.7 25.3 17.9 70 3.7 ESE 6 11 3 6 1004.1 1003.7 0.0
24/12:30pm 22.8 24.0 16.8 69 3.7 SE 6 9 3 5 1004.5 1004.1 0.0
24/12:00pm 21.5 22.4 16.0 71 3.3 SSW 6 7 3 4 1005.1 1004.7 0.0
24/11:30am 20.9 22.2 16.1 74 2.9 S 4 7 2 4 1005.3 1004.9 0.0
24/11:00am 20.1 21.2 15.7 76 2.6 WNW 4 4 2 2 1005.8 1005.3 0.0
24/10:30am 19.8 20.4 15.4 76 2.6 ESE 6 9 3 5 1006.0 1005.5 0.0
24/10:00am 18.9 19.5 15.2 79 2.2 E 6 9 3 5 1006.2 1005.7 0.0
24/09:30am 17.8 17.8 15.2 85 1.5 E 9 13 5 7 1006.2 1005.7 0.0
24/09:00am 17.2 17.4 14.8 86 1.4 E 7 11 4 6 1006.5 1006.0 0.0
24/08:30am 16.9 17.1 14.7 87 1.3 E 7 11 4 6 1006.0 1005.5 0.0
24/08:00am 16.3 15.7 14.7 90 0.9 E 11 15 6 8 1005.6 1005.2 0.0
24/07:30am 15.9 15.7 14.6 92 0.7 E 9 13 5 7 1006.0 1005.5 0.0
24/07:00am 15.8 14.8 14.5 92 0.7 E 13 19 7 10 1005.8 1005.3 0.0
24/06:30am 15.8 15.1 14.3 91 0.9 ESE 11 17 6 9 1005.9 1005.4 0.0
24/06:00am 16.1 15.4 14.3 89 1.0 E 11 19 6 10 1005.8 1005.3 0.0
24/05:30am 16.3 16.0 14.3 88 1.1 E 9 17 5 9 1006.0 1005.5 0.0
24/05:00am 16.4 15.6 14.1 86 1.3 E 11 19 6 10 1005.8 1005.3 0.0
24/04:30am 16.4 16.0 14.2 87 1.3 E 9 17 5 9 1005.8 1005.3 0.0
24/04:00am 16.4 15.2 14.1 86 1.3 E 13 24 7 13 1005.9 1005.4 0.0
24/03:30am 16.3 15.7 14.5 89 1.0 ESE 11 17 6 9 1006.2 1005.7 0.0
24/03:00am 16.5 15.9 14.5 88 1.2 ESE 11 17 6 9 1006.4 1005.9 0.0
24/02:30am 16.2 15.8 14.0 87 1.3 ESE 9 13 5 7 1006.8 1006.3 0.0
24/02:00am 16.6 16.4 13.5 82 1.8 ESE 7 13 4 7 1007.1 1006.6 0.0
24/01:30am 16.7 17.3 13.2 80 2.0 ESE 2 6 1 3 1007.4 1007.0 0.0
24/01:00am 16.7 17.3 13.2 80 2.0 ESE 2 6 1 3 1007.7 1007.3 0.0
24/12:30am 16.6 16.8 13.1 80 2.0 ESE 4 6 2 3 1007.8 1007.4 0.0
24/12:00am 16.7 16.3 13.0 79 2.1 ESE 7 9 4 5 1008.1 1007.7 0.0
 
Date/Time
EDT
Temp
°C
App
Temp
°C
Dew
Point
Rel
Hum
%
Delta-T
°C
Wind Press
QNH
hPa
Press
MSL
hPa
Rain
since 9 am
mm
Dir
 
Spd
km/h
Gust
km/h
Spd
kts
Gust
kts
23/11:30pm 16.8 16.3 12.7 77 2.3 ESE 7 11 4 6 1008.5 1008.1 0.0
23/11:00pm 16.9 16.4 12.8 77 2.3 ESE 7 11 4 6 1008.9 1008.5 0.0
23/10:30pm 17.2 17.0 12.9 76 2.4 E 6 9 3 5 1009.1 1008.7 0.0
23/10:00pm 17.2 17.5 13.3 78 2.2 ESE 4 4 2 2 1009.3 1008.9 0.0
23/09:30pm 17.4 18.0 13.1 76 2.4 SW 2 6 1 3 1009.5 1009.1 0.0

Other Formats:

Comma delimited format used in spreadsheet applications
http://www.bom.gov.au/fwo/IDV60801/IDV60801.99806.axf

JavaScript Object Notation format (JSON) in row-major order
http://www.bom.gov.au/fwo/IDV60801/IDV60801.99806.json